Time;durP1;ratioP1;P1;durP2;ratioP2;P2;SDS_P1;SDS_P2;PMS_P1;PMS_P2;Temp;Humidity;BMP_temperature;BMP_pressure;BME280_temperature;BME280_humidity;BME280_pressure;Samples;Min_cycle;Max_cycle;Signal;HPM_P1;HPM_P2
2023/05/30 04:35:35;;;;;;;;;;;;;;;16.12;85.61;99869.96;106882;1273;22516;-47
2023/05/30 04:38:03;;;;;;;;;;;;;;;16.34;85.13;99871.27;109794;1280;22442;-53
2023/05/30 04:40:32;;;;;;;;;;;;;;;16.55;85.17;99868.32;109856;1273;22458;-45
2023/05/30 04:42:59;;;;;;;;;;;;;;;16.76;84.72;99867.67;109881;1274;23289;-45
2023/05/30 04:45:29;;;;;;;;;;;;;;;16.98;82.72;99868.58;109818;1280;23220;-55
2023/05/30 04:47:57;;;;;;;;;;;;;;;17.19;80.97;99865.05;109851;1280;22490;-44
2023/05/30 04:50:24;;;;;;;;;;;;;;;17.39;80.53;99867.35;109791;1274;23285;-54
2023/05/30 04:52:52;;;;;;;;;;;;;;;17.59;79.89;99866.99;109783;1277;23271;-54
2023/05/30 04:55:19;;;;;;;;;;;;;;;17.80;79.62;99866.83;109919;1274;22431;-53
2023/05/30 04:57:48;;;;;;;;;;;;;;;18.01;78.47;99867.98;109905;1278;23154;-45
2023/05/30 05:00:16;;;;;;;;;;;;;;;18.20;77.24;99863.22;109867;1276;22448;-48
2023/05/30 05:02:43;;;;;;;;;;;;;;;18.36;75.99;99861.36;109844;1280;23243;-44
2023/05/30 05:05:11;;;;;;;;;;;;;;;18.52;74.88;99862.84;109795;1279;23182;-45
2023/05/30 05:07:39;;;;;;;;;;;;;;;18.68;74.06;99863.13;109840;1279;22448;-45
2023/05/30 05:10:09;;;;;;;;;;;;;;;18.85;74.14;99861.36;109822;1279;23248;-54
2023/05/30 05:12:37;;;;;;;;;;;;;;;19.03;73.15;99864.51;109798;1275;22445;-54
2023/05/30 05:15:05;;;;;;;;;;;;;;;19.20;72.13;99864.33;109740;1273;23187;-45
2023/05/30 05:17:32;;;;;;;;;;;;;;;19.37;71.41;99862.02;109650;1274;22469;-46
2023/05/30 05:20:00;;;;;;;;;;;;;;;19.54;70.83;99863.77;109786;1273;22715;-45
2023/05/30 05:22:32;;;;;;;;;;;;;;;19.72;69.91;99859.45;109678;1272;22963;-54
2023/05/30 05:25:00;;;;;;;;;;;;;;;19.86;68.33;99856.00;109783;1272;22435;-55
2023/05/30 05:27:27;;;;;;;;;;;;;;;19.97;67.37;99859.58;109738;1272;23216;-46
2023/05/30 05:29:55;;;;;;;;;;;;;;;20.08;66.00;99863.48;109746;1275;23192;-45
2023/05/30 05:32:23;;;;;;;;;;;;;;;20.16;64.73;99859.23;109593;1273;22458;-45
2023/05/30 05:34:54;;;;;;;;;;;;;;;20.21;64.42;99855.98;108653;1275;22526;-54
2023/05/30 05:37:28;;;;;;;;;;;;;;;20.29;64.46;99854.91;108316;1274;22679;-48
2023/05/30 05:39:58;;;;;;;;;;;;;;;20.39;63.61;99859.06;109272;1273;22699;-55
2023/05/30 05:42:27;;;;;;;;;;;;;;;20.42;62.93;99860.86;108559;1278;22518;-55
2023/05/30 05:44:55;;;;;;;;;;;;;;;20.44;62.84;99863.58;108380;1280;22497;-46
2023/05/30 05:47:24;;;;;;;;;;;;;;;20.43;62.29;99864.85;109473;1272;23451;-46
2023/05/30 05:49:52;;;;;;;;;;;;;;;20.43;61.89;99867.89;108798;1272;22537;-54
2023/05/30 05:52:20;;;;;;;;;;;;;;;20.43;61.44;99863.44;108799;1272;22533;-55
2023/05/30 05:54:48;;;;;;;;;;;;;;;20.47;61.57;99860.09;109431;1272;23314;-55
2023/05/30 05:57:16;;;;;;;;;;;;;;;20.57;61.04;99862.67;109594;1273;22585;-54
2023/05/30 05:59:44;;;;;;;;;;;;;;;20.62;60.63;99856.20;109448;1274;22502;-53
2023/05/30 06:02:15;;;;;;;;;;;;;;;20.69;60.20;99855.69;109378;1275;22594;-54
2023/05/30 06:04:43;;;;;;;;;;;;;;;20.72;59.48;99853.77;109552;1272;23057;-45
2023/05/30 06:07:13;;;;;;;;;;;;;;;20.77;59.57;99848.05;108994;1278;24429;-57
2023/05/30 06:09:43;;;;;;;;;;;;;;;20.85;59.08;99850.31;109275;1272;23095;-55
2023/05/30 06:12:17;;;;;;;;;;;;;;;20.92;59.11;99848.52;109191;1272;22510;-46
2023/05/30 06:14:46;;;;;;;;;;;;;;;21.01;58.51;99849.13;108865;1272;23252;-55
2023/05/30 06:17:23;;;;;;;;;;;;;;;21.10;57.78;99847.27;109120;1275;22480;-51
2023/05/30 06:20:19;;;;;;;;;;;;;;;21.18;57.34;99842.45;109132;1277;22668;-55
2023/05/30 06:23:17;;;;;;;;;;;;;;;21.27;57.10;99845.88;109588;1274;22437;-53
2023/05/30 06:26:15;;;;;;;;;;;;;;;21.40;56.73;99844.55;109500;1278;22472;-45
2023/05/30 06:29:28;;;;;;;;;;;;;;;21.50;55.97;99846.16;109423;1278;23959;-56
2023/05/30 06:33:09;;;;;;;;;;;;;;;21.60;54.74;99846.13;109513;1274;23007;-55
2023/05/30 06:37:00;;;;;;;;;;;;;;;21.73;54.54;99843.66;109513;1272;22495;-47
2023/05/30 06:40:26;;;;;;;;;;;;;;;21.90;54.84;99840.30;109361;1278;23172;-52
2023/05/30 06:43:53;;;;;;;;;;;;;;;22.07;54.88;99839.58;109031;1272;22618;-48
2023/05/30 06:46:45;;;;;;;;;;;;;;;22.24;53.25;99836.69;109160;1271;23769;-47
2023/05/30 06:49:14;;;;;;;;;;;;;;;22.37;52.64;99832.60;109285;1275;22577;-52
2023/05/30 06:51:45;;;;;;;;;;;;;;;22.50;51.94;99834.38;108018;1280;22543;-47
2023/05/30 06:54:14;;;;;;;;;;;;;;;22.62;50.31;99832.80;109581;1273;23325;-51
2023/05/30 06:56:42;;;;;;;;;;;;;;;22.71;49.80;99830.33;109605;1274;23816;-54
2023/05/30 06:59:11;;;;;;;;;;;;;;;22.76;49.07;99830.02;108864;1278;22565;-47
2023/05/30 07:01:45;;;;;;;;;;;;;;;22.78;48.37;99824.94;109586;1277;22852;-56
2023/05/30 07:04:13;;;;;;;;;;;;;;;22.76;47.36;99824.33;109421;1275;23454;-56
2023/05/30 07:06:41;;;;;;;;;;;;;;;22.74;46.45;99820.52;109497;1277;22460;-56
2023/05/30 07:09:09;;;;;;;;;;;;;;;22.73;46.37;99818.98;109596;1278;23071;-50
2023/05/30 07:11:36;;;;;;;;;;;;;;;22.76;46.79;99818.45;109648;1272;22452;-50
2023/05/30 07:14:06;;;;;;;;;;;;;;;22.87;46.17;99819.10;109577;1274;23645;-49
2023/05/30 07:16:34;;;;;;;;;;;;;;;22.99;46.38;99821.05;109609;1278;23189;-49
2023/05/30 07:19:02;;;;;;;;;;;;;;;23.11;45.51;99820.52;109513;1278;22440;-55
2023/05/30 07:21:38;;;;;;;;;;;;;;;23.17;43.82;99824.09;109517;1272;22623;-57
2023/05/30 07:24:11;;;;;;;;;;;;;;;23.10;43.04;99823.23;109105;1274;22517;-55
2023/05/30 07:26:43;;;;;;;;;;;;;;;23.04;43.22;99826.80;108768;1272;23243;-55
2023/05/30 07:29:10;;;;;;;;;;;;;;;23.10;43.23;99826.80;109746;1278;22434;-55
2023/05/30 07:31:38;;;;;;;;;;;;;;;23.23;42.29;99825.31;109346;1272;22521;-55
2023/05/30 07:34:05;;;;;;;;;;;;;;;23.36;42.05;99824.55;109611;1274;22452;-46
2023/05/30 07:36:33;;;;;;;;;;;;;;;23.43;41.71;99821.81;108955;1279;24347;-47
2023/05/30 07:39:00;;;;;;;;;;;;;;;23.49;41.15;99824.32;108282;1277;23274;-54
2023/05/30 07:41:28;;;;;;;;;;;;;;;23.56;40.58;99819.23;109036;1272;22499;-46
2023/05/30 07:43:55;;;;;;;;;;;;;;;23.66;40.79;99820.63;109246;1276;22619;-46
2023/05/30 07:46:24;;;;;;;;;;;;;;;23.74;40.03;99821.89;109029;1273;23152;-55
2023/05/30 07:48:53;;;;;;;;;;;;;;;23.82;39.98;99824.80;108840;1278;25490;-46
2023/05/30 07:51:22;;;;;;;;;;;;;;;23.91;40.08;99820.15;109361;1271;23270;-54
2023/05/30 07:53:50;;;;;;;;;;;;;;;24.02;40.10;99822.31;109654;1278;23023;-47
2023/05/30 07:56:17;;;;;;;;;;;;;;;24.12;39.84;99819.89;109590;1275;22458;-55
2023/05/30 07:58:45;;;;;;;;;;;;;;;24.20;40.50;99821.33;109705;1278;22445;-55
2023/05/30 08:01:12;;;;;;;;;;;;;;;24.30;40.52;99823.53;109026;1273;23312;-47
2023/05/30 08:03:40;;;;;;;;;;;;;;;24.39;40.18;99828.85;109728;1275;23663;-47
2023/05/30 08:06:08;;;;;;;;;;;;;;;24.44;39.60;99823.43;109623;1272;22447;-47
2023/05/30 08:08:35;;;;;;;;;;;;;;;24.43;39.25;99822.06;109735;1277;22849;-46
2023/05/30 08:11:03;;;;;;;;;;;;;;;24.44;38.98;99820.19;109605;1279;23281;-55
2023/05/30 08:13:31;;;;;;;;;;;;;;;24.47;39.12;99817.15;109681;1274;22978;-47
2023/05/30 08:15:58;;;;;;;;;;;;;;;24.55;38.96;99817.34;109527;1280;22456;-56
2023/05/30 08:18:26;;;;;;;;;;;;;;;24.67;38.10;99814.05;109625;1275;22972;-54
2023/05/30 08:20:54;;;;;;;;;;;;;;;24.72;36.86;99815.17;109607;1277;22456;-54
2023/05/30 08:23:23;;;;;;;;;;;;;;;24.71;36.05;99812.55;109639;1277;22995;-47
2023/05/30 08:25:52;;;;;;;;;;;;;;;24.66;36.36;99806.24;109715;1278;23148;-46
2023/05/30 08:28:20;;;;;;;;;;;;;;;24.61;36.37;99805.30;109812;1272;22469;-46
2023/05/30 08:30:48;;;;;;;;;;;;;;;24.62;37.00;99805.94;109767;1276;22958;-46
2023/05/30 08:33:17;;;;;;;;;;;;;;;24.66;36.49;99808.40;109601;1275;22963;-54
2023/05/30 08:35:45;;;;;;;;;;;;;;;24.71;36.02;99805.20;109715;1280;23398;-46
2023/05/30 08:38:12;;;;;;;;;;;;;;;24.76;36.80;99800.41;109678;1280;22464;-54
2023/05/30 08:40:40;;;;;;;;;;;;;;;24.83;36.93;99797.10;109654;1277;22450;-54
2023/05/30 08:43:08;;;;;;;;;;;;;;;24.86;36.96;99800.97;109589;1277;23166;-54
2023/05/30 08:45:36;;;;;;;;;;;;;;;24.81;36.63;99800.98;109782;1279;22474;-54
2023/05/30 08:48:05;;;;;;;;;;;;;;;24.78;36.80;99797.21;109792;1275;22558;-55
2023/05/30 08:50:33;;;;;;;;;;;;;;;24.79;36.90;99804.70;109743;1274;22452;-55
2023/05/30 08:53:08;;;;;;;;;;;;;;;24.81;36.90;99800.79;109838;1273;22557;-54
2023/05/30 08:55:38;;;;;;;;;;;;;;;24.86;37.21;99799.00;109420;1274;22516;-47
2023/05/30 08:58:24;;;;;;;;;;;;;;;24.93;36.51;99796.77;109824;1276;22483;-54
2023/05/30 09:00:52;;;;;;;;;;;;;;;24.99;36.18;99797.48;109717;1279;22429;-54
2023/05/30 09:03:22;;;;;;;;;;;;;;;25.01;35.59;99798.20;109803;1280;22467;-47
2023/05/30 09:05:49;;;;;;;;;;;;;;;25.00;35.78;99799.37;109152;1280;22687;-47
2023/05/30 09:08:17;;;;;;;;;;;;;;;24.98;35.47;99794.84;109774;1280;22425;-54
2023/05/30 09:10:48;;;;;;;;;;;;;;;24.96;35.43;99796.21;109838;1274;23080;-58
2023/05/30 09:13:21;;;;;;;;;;;;;;;24.98;36.03;99795.03;109818;1276;22459;-54
2023/05/30 09:15:48;;;;;;;;;;;;;;;25.04;36.53;99796.05;109829;1272;23769;-54
2023/05/30 09:18:16;;;;;;;;;;;;;;;25.14;36.28;99792.18;109902;1279;23228;-47
2023/05/30 09:20:43;;;;;;;;;;;;;;;25.28;36.01;99798.38;109830;1272;22591;-54
2023/05/30 09:23:11;;;;;;;;;;;;;;;25.41;35.73;99801.72;109893;1276;22615;-47
2023/05/30 09:25:42;;;;;;;;;;;;;;;25.54;35.83;99800.50;109895;1277;22448;-54
2023/05/30 09:28:10;;;;;;;;;;;;;;;25.63;35.14;99799.17;109780;1279;22472;-47
2023/05/30 09:30:54;;;;;;;;;;;;;;;25.58;35.09;99799.30;109801;1277;22481;-54
2023/05/30 09:33:53;;;;;;;;;;;;;;;25.55;34.59;99793.45;109650;1277;22451;-47
2023/05/30 09:36:21;;;;;;;;;;;;;;;25.53;33.38;99789.30;109668;1274;22471;-54
2023/05/30 09:38:53;;;;;;;;;;;;;;;25.53;33.75;99793.61;109719;1273;22430;-47
2023/05/30 09:41:21;;;;;;;;;;;;;;;25.56;33.35;99787.67;109696;1279;22456;-47
2023/05/30 09:43:55;;;;;;;;;;;;;;;25.55;32.24;99789.02;109677;1280;22986;-47
2023/05/30 09:46:23;;;;;;;;;;;;;;;25.51;31.77;99788.02;109299;1280;22606;-53
2023/05/30 09:48:53;;;;;;;;;;;;;;;25.49;31.54;99783.54;109348;1275;22536;-48
2023/05/30 09:51:21;;;;;;;;;;;;;;;25.46;31.30;99790.48;109287;1278;22509;-53
2023/05/30 09:53:53;;;;;;;;;;;;;;;25.39;31.02;99795.29;109550;1280;22455;-53
2023/05/30 09:56:28;;;;;;;;;;;;;;;25.27;30.78;99787.88;109434;1277;22501;-55
2023/05/30 09:58:57;;;;;;;;;;;;;;;25.20;30.79;99781.05;109531;1278;23264;-46
2023/05/30 10:01:25;;;;;;;;;;;;;;;25.20;30.01;99778.75;109579;1273;22459;-46
2023/05/30 10:03:53;;;;;;;;;;;;;;;25.13;30.45;99779.05;109612;1273;22427;-46
2023/05/30 10:06:21;;;;;;;;;;;;;;;25.11;30.74;99778.82;109533;1278;22536;-46
2023/05/30 10:08:49;;;;;;;;;;;;;;;25.08;30.97;99780.09;109516;1272;22593;-46
2023/05/30 10:11:18;;;;;;;;;;;;;;;25.12;32.13;99781.23;109517;1276;22523;-46
2023/05/30 10:13:48;;;;;;;;;;;;;;;25.22;32.35;99780.73;109449;1280;22892;-46
2023/05/30 10:16:17;;;;;;;;;;;;;;;25.31;32.14;99776.73;109443;1272;22436;-56
2023/05/30 10:18:48;;;;;;;;;;;;;;;25.39;32.14;99777.60;109147;1279;23432;-55
2023/05/30 10:21:16;;;;;;;;;;;;;;;25.42;31.71;99779.89;109506;1279;22541;-53
2023/05/30 10:23:43;;;;;;;;;;;;;;;25.41;31.71;99771.77;109461;1278;23004;-54
2023/05/30 10:26:11;;;;;;;;;;;;;;;25.45;31.63;99773.64;109514;1278;22494;-55
2023/05/30 10:28:38;;;;;;;;;;;;;;;25.58;31.73;99771.10;109524;1277;23418;-47
2023/05/30 10:31:05;;;;;;;;;;;;;;;25.72;31.88;99761.52;109629;1279;22445;-46
2023/05/30 10:33:35;;;;;;;;;;;;;;;25.86;31.95;99758.59;109561;1278;22457;-56
2023/05/30 10:36:22;;;;;;;;;;;;;;;26.14;31.25;99756.97;109568;1276;22914;-54
2023/05/30 10:39:13;;;;;;;;;;;;;;;26.38;31.10;99748.75;109532;1277;22470;-55
2023/05/30 10:41:58;;;;;;;;;;;;;;;26.72;31.40;99750.13;109563;1274;23180;-54
2023/05/30 10:44:47;;;;;;;;;;;;;;;26.87;31.47;99750.58;109674;1278;23255;-54
2023/05/30 10:47:20;;;;;;;;;;;;;;;26.90;31.21;99742.90;109600;1273;22435;-46
2023/05/30 10:49:48;;;;;;;;;;;;;;;27.06;31.64;99738.24;109904;1273;23420;-47
2023/05/30 10:52:17;;;;;;;;;;;;;;;27.24;31.18;99731.11;109793;1278;22451;-47
2023/05/30 10:54:46;;;;;;;;;;;;;;;27.30;30.94;99736.01;109857;1277;23218;-47
2023/05/30 10:57:23;;;;;;;;;;;;;;;27.32;31.41;99735.58;108480;1279;22530;-54
2023/05/30 10:59:53;;;;;;;;;;;;;;;27.34;31.53;99735.36;109626;1273;22546;-54
2023/05/30 11:02:30;;;;;;;;;;;;;;;27.49;31.39;99732.00;109516;1274;22628;-54
2023/05/30 11:04:58;;;;;;;;;;;;;;;27.72;31.71;99729.89;109927;1276;22455;-54
2023/05/30 11:07:25;;;;;;;;;;;;;;;28.01;31.27;99729.29;109823;1277;23274;-54
2023/05/30 11:10:00;;;;;;;;;;;;;;;28.17;31.02;99730.30;109957;1273;23292;-54
2023/05/30 11:12:27;;;;;;;;;;;;;;;28.15;30.38;99730.52;109870;1274;22465;-54
2023/05/30 11:14:55;;;;;;;;;;;;;;;27.91;30.50;99726.20;109798;1279;23514;-47
2023/05/30 11:17:33;;;;;;;;;;;;;;;27.74;31.29;99723.45;109825;1267;22666;-47
2023/05/30 11:20:20;;;;;;;;;;;;;;;27.77;31.77;99719.30;109731;1272;115124;-54
2023/05/30 11:23:11;;;;;;;;;;;;;;;27.84;32.23;99722.30;109855;1274;22434;-54
2023/05/30 11:25:38;;;;;;;;;;;;;;;27.92;32.49;99727.88;109881;1274;23154;-55
2023/05/30 11:28:06;;;;;;;;;;;;;;;27.94;31.70;99725.58;109901;1274;23125;-55
2023/05/30 11:30:37;;;;;;;;;;;;;;;27.88;31.79;99727.49;109778;1273;22506;-47
2023/05/30 11:33:11;;;;;;;;;;;;;;;27.77;31.60;99723.55;109811;1272;22924;-47
2023/05/30 11:35:41;;;;;;;;;;;;;;;27.70;31.84;99723.80;109830;1278;22462;-54
2023/05/30 11:38:09;;;;;;;;;;;;;;;27.63;32.01;99723.80;109852;1275;22467;-54
2023/05/30 11:40:43;;;;;;;;;;;;;;;27.61;32.69;99724.27;109838;1276;23017;-54
2023/05/30 11:43:13;;;;;;;;;;;;;;;27.55;32.48;99724.40;109790;1275;22458;-54
2023/05/30 11:45:40;;;;;;;;;;;;;;;27.32;33.01;99725.88;109765;1280;22451;-55
2023/05/30 11:48:08;;;;;;;;;;;;;;;27.16;33.32;99730.70;109837;1279;22850;-47
2023/05/30 11:50:39;;;;;;;;;;;;;;;27.08;33.41;99727.58;109828;1279;22425;-47
2023/05/30 11:53:25;;;;;;;;;;;;;;;27.06;33.39;99721.82;109800;1275;23196;-54
2023/05/30 11:55:53;;;;;;;;;;;;;;;27.03;33.82;99724.50;109832;1278;22912;-54
2023/05/30 11:58:20;;;;;;;;;;;;;;;27.07;33.73;99721.02;109829;1278;22441;-54
2023/05/30 12:00:48;;;;;;;;;;;;;;;26.98;34.28;99725.59;109904;1278;22473;-47
2023/05/30 12:03:19;;;;;;;;;;;;;;;26.69;34.72;99727.49;109970;1272;23158;-54
2023/05/30 12:05:47;;;;;;;;;;;;;;;26.42;35.14;99726.13;109928;1274;22451;-47
2023/05/30 12:08:16;;;;;;;;;;;;;;;26.29;35.70;99731.48;108850;1277;22606;-48
2023/05/30 12:10:44;;;;;;;;;;;;;;;26.24;36.24;99729.34;108896;1280;22591;-54
2023/05/30 12:13:12;;;;;;;;;;;;;;;26.33;36.48;99727.68;107480;1279;22535;-53
2023/05/30 12:15:39;;;;;;;;;;;;;;;26.41;36.52;99727.97;106610;1279;22517;-54
2023/05/30 12:18:08;;;;;;;;;;;;;;;26.51;36.59;99729.16;109290;1279;22498;-47
2023/05/30 12:20:42;;;;;;;;;;;;;;;26.57;36.51;99727.66;108649;1276;22517;-53
2023/05/30 12:23:13;;;;;;;;;;;;;;;26.63;36.45;99727.61;109907;1279;22432;-53
2023/05/30 12:25:48;;;;;;;;;;;;;;;26.71;36.67;99724.96;109915;1279;23312;-46
2023/05/30 12:28:15;;;;;;;;;;;;;;;26.79;36.64;99727.61;109914;1279;23188;-46
2023/05/30 12:30:43;;;;;;;;;;;;;;;26.76;36.78;99730.51;109942;1279;22528;-46
2023/05/30 12:33:24;;;;;;;;;;;;;;;26.65;36.45;99724.75;109911;1279;22436;-46
2023/05/30 12:35:54;;;;;;;;;;;;;;;26.49;36.98;99723.59;109964;1273;22406;-53
2023/05/30 12:38:23;;;;;;;;;;;;;;;26.34;37.24;99722.59;108497;1276;26472;-47
2023/05/30 12:40:50;;;;;;;;;;;;;;;26.10;37.60;99722.55;109928;1280;23065;-54
2023/05/30 12:43:25;;;;;;;;;;;;;;;25.93;38.35;99725.02;109509;1280;23847;-48
2023/05/30 12:45:52;;;;;;;;;;;;;;;25.85;39.27;99726.89;107523;1280;25208;-54
2023/05/30 12:48:20;;;;;;;;;;;;;;;25.80;39.81;99724.91;106888;1280;24199;-47
2023/05/30 12:50:47;;;;;;;;;;;;;;;25.79;40.05;99724.13;109960;1280;22447;-55
2023/05/30 12:53:15;;;;;;;;;;;;;;;25.78;39.98;99722.60;109947;1280;22430;-47
2023/05/30 12:55:42;;;;;;;;;;;;;;;25.74;39.95;99722.48;109912;1280;22440;-47
2023/05/30 12:58:10;;;;;;;;;;;;;;;25.67;40.12;99721.54;109923;1280;22459;-48
2023/05/30 13:00:37;;;;;;;;;;;;;;;25.61;39.86;99721.77;109970;1274;22442;-48
2023/05/30 13:03:05;;;;;;;;;;;;;;;25.63;40.20;99719.69;109932;1280;22441;-47
2023/05/30 13:05:32;;;;;;;;;;;;;;;25.67;40.66;99724.71;106983;1280;24369;-47
2023/05/30 13:08:00;;;;;;;;;;;;;;;25.64;40.91;99730.34;107311;1280;22536;-47
2023/05/30 13:10:27;;;;;;;;;;;;;;;25.55;40.97;99729.20;108457;1273;22533;-46
2023/05/30 13:12:55;;;;;;;;;;;;;;;25.49;41.03;99730.51;109884;1280;22496;-47
2023/05/30 13:15:22;;;;;;;;;;;;;;;25.43;41.29;99733.55;109925;1279;22451;-47
2023/05/30 13:17:50;;;;;;;;;;;;;;;25.29;41.36;99736.75;109961;1279;22427;-47
